createdAt,value
2018-09-08T00:01:12.243Z,8.90
2018-09-08T00:03:40.243Z,7.95
2018-09-08T00:06:08.187Z,7.65
2018-09-08T00:08:36.150Z,6.93
2018-09-08T00:11:03.979Z,7.90
2018-09-08T00:13:31.886Z,7.35
2018-09-08T00:16:05.257Z,7.25
2018-09-08T00:18:38.731Z,7.80
2018-09-08T00:21:12.369Z,7.40
2018-09-08T00:23:45.852Z,6.90
2018-09-08T00:26:19.128Z,6.20
2018-09-08T00:38:42.516Z,6.13
2018-09-08T00:55:53.615Z,6.00
2018-09-08T01:03:15.710Z,6.00
2018-09-08T01:05:43.554Z,5.90
2018-09-08T01:08:11.412Z,5.70
2018-09-08T01:10:39.693Z,6.40
2018-09-08T01:13:07.522Z,5.57
2018-09-08T01:15:35.342Z,6.40
2018-09-08T01:40:08.050Z,5.45
2018-09-08T01:42:35.977Z,5.80
2018-09-08T01:59:46.301Z,5.40
2018-09-08T02:04:41.262Z,5.80
2018-09-08T02:07:09.092Z,5.55
2018-09-08T02:10:40.588Z,4.97
2018-09-08T02:18:02.587Z,4.27
2018-09-08T02:20:30.379Z,5.20
2018-09-08T02:22:58.287Z,5.20
2018-09-08T02:25:26.147Z,5.10
2018-09-08T02:27:53.879Z,5.35
2018-09-08T02:30:21.688Z,4.37
2018-09-08T02:32:49.547Z,4.90
2018-09-08T02:37:44.497Z,4.80
2018-09-08T02:40:12.355Z,4.80
2018-09-08T02:42:40.416Z,5.30
2018-09-08T02:45:08.244Z,5.10
2018-09-08T02:47:36.147Z,4.10
2018-09-08T02:50:09.584Z,4.90
2018-09-08T02:52:37.026Z,4.43
2018-09-08T02:55:04.365Z,4.33
2018-09-08T02:57:31.746Z,4.70
2018-09-08T02:59:59.088Z,4.60
2018-09-08T03:02:26.441Z,4.17
2018-09-08T03:04:53.797Z,4.40
2018-09-08T03:07:21.137Z,4.90
2018-09-08T03:09:48.485Z,4.70
2018-09-08T03:12:15.886Z,4.80
2018-09-08T03:14:43.220Z,5.50
2018-09-08T03:17:10.585Z,5.20
2018-09-08T03:19:37.949Z,5.87
2018-09-08T03:22:05.286Z,5.77
2018-09-08T03:24:32.653Z,5.63
2018-09-08T03:26:59.964Z,5.70
2018-09-08T03:29:27.314Z,5.93
2018-09-08T03:31:54.671Z,6.27
2018-09-08T03:34:22.053Z,6.13
2018-09-08T03:36:49.521Z,5.43
2018-09-08T03:39:16.857Z,6.30
2018-09-08T03:41:44.288Z,6.00
2018-09-08T03:44:11.632Z,6.50
2018-09-08T03:46:39.064Z,6.50
2018-09-08T03:49:06.414Z,6.20
2018-09-08T03:51:34.146Z,6.20
2018-09-08T03:54:01.490Z,6.90
2018-09-08T03:56:28.878Z,6.60
2018-09-08T03:58:56.276Z,6.17
2018-09-08T04:01:23.540Z,6.43
2018-09-08T04:03:51.417Z,6.20
2018-09-08T04:06:19.241Z,6.80
2018-09-08T04:08:47.098Z,6.47
2018-09-08T04:11:15.191Z,7.10
2018-09-08T04:13:43.039Z,6.20
2018-09-08T04:16:10.929Z,7.20
2018-09-08T04:18:38.774Z,6.80
2018-09-08T04:21:06.593Z,6.60
2018-09-08T04:23:34.611Z,5.90
2018-09-08T04:26:02.850Z,5.87
2018-09-08T04:28:31.225Z,6.73
2018-09-08T04:30:59.095Z,6.20
2018-09-08T04:33:26.965Z,6.43
2018-09-08T04:35:54.827Z,6.30
2018-09-08T04:38:22.689Z,6.30
2018-09-08T04:40:50.569Z,6.97
2018-09-08T04:43:18.406Z,6.50
2018-09-08T04:45:46.262Z,6.80
2018-09-08T04:48:14.072Z,6.40
2018-09-08T04:50:42.065Z,6.87
2018-09-08T04:53:09.889Z,6.93
2018-09-08T04:55:38.015Z,6.83
2018-09-08T04:58:05.942Z,6.97
2018-09-08T05:00:34.002Z,6.70
2018-09-08T05:03:01.841Z,6.57
2018-09-08T05:05:29.670Z,6.93
2018-09-08T05:07:57.555Z,7.07
2018-09-08T05:10:25.419Z,7.40
2018-09-08T05:12:53.266Z,7.30
2018-09-08T05:15:21.078Z,6.97
2018-09-08T05:17:49.006Z,7.43
2018-09-08T05:20:16.833Z,7.17
2018-09-08T05:22:44.622Z,7.77
2018-09-08T05:25:12.538Z,7.40
2018-09-08T05:27:40.385Z,6.63
2018-09-08T05:30:08.245Z,7.40
2018-09-08T05:32:36.059Z,7.20
2018-09-08T05:35:03.968Z,7.20
2018-09-08T05:37:31.785Z,7.30
2018-09-08T05:39:59.656Z,7.00
2018-09-08T05:42:27.482Z,6.80
2018-09-08T05:44:55.261Z,6.70
2018-09-08T05:47:23.156Z,7.37
2018-09-08T05:49:51.012Z,7.40
2018-09-08T05:54:27.492Z,8.80
2018-09-08T05:56:55.326Z,7.47
2018-09-08T05:59:23.149Z,6.70
2018-09-08T06:01:51.093Z,7.10
2018-09-08T06:04:18.952Z,7.20
2018-09-08T06:06:46.753Z,6.83
2018-09-08T06:09:14.649Z,6.40
2018-09-08T06:11:42.555Z,7.00
2018-09-08T06:14:10.423Z,7.20
2018-09-08T06:16:38.277Z,6.70
2018-09-08T06:19:06.129Z,7.33
2018-09-08T06:21:34.031Z,6.60
2018-09-08T06:24:01.932Z,6.83
2018-09-08T06:26:29.842Z,7.43
2018-09-08T06:28:57.846Z,6.93
2018-09-08T06:31:25.734Z,6.93
2018-09-08T06:33:53.632Z,6.70
2018-09-08T06:36:21.473Z,6.10
2018-09-08T06:38:49.374Z,6.50
2018-09-08T06:41:17.241Z,5.80
2018-09-08T06:43:45.034Z,6.23
2018-09-08T06:46:12.937Z,5.73
2018-09-08T06:48:40.863Z,6.00
2018-09-08T06:51:09.654Z,6.07
2018-09-08T06:53:37.634Z,6.43
2018-09-08T06:56:05.974Z,6.00
2018-09-08T06:58:33.768Z,6.30
2018-09-08T07:01:01.721Z,5.43
2018-09-08T07:03:29.708Z,5.43
2018-09-08T07:05:57.620Z,5.30
2018-09-08T07:08:25.547Z,4.87
2018-09-08T07:10:53.526Z,4.80
2018-09-08T07:13:21.669Z,4.90
2018-09-08T07:15:49.991Z,4.50
2018-09-08T07:18:17.922Z,4.33
2018-09-08T07:20:47.170Z,4.10
2018-09-08T07:23:15.034Z,4.43
2018-09-08T07:25:42.943Z,3.97
2018-09-08T07:28:10.860Z,4.27
2018-09-08T07:30:38.803Z,4.20
2018-09-08T07:40:11.712Z,4.80
2018-09-08T07:42:39.566Z,5.00
2018-09-08T07:45:07.405Z,4.00
2018-09-08T07:47:35.301Z,4.70
2018-09-08T07:50:03.128Z,4.57
2018-09-08T07:57:25.218Z,4.10
2018-09-08T07:59:53.061Z,4.10
2018-09-08T08:02:20.992Z,4.40
2018-09-08T08:04:48.918Z,4.07
2018-09-08T08:07:16.815Z,3.80
2018-09-08T08:09:45.623Z,3.93
2018-09-08T08:12:14.586Z,4.37
2018-09-08T08:14:42.380Z,4.07
2018-09-08T08:17:10.359Z,4.03
2018-09-08T08:19:38.281Z,4.57
2018-09-08T08:22:06.625Z,4.00
2018-09-08T08:24:34.538Z,4.00
2018-09-08T08:27:02.390Z,3.83
2018-09-08T08:29:30.241Z,3.80
2018-09-08T08:31:58.102Z,3.53
2018-09-08T08:34:25.993Z,3.30
2018-09-08T08:36:53.846Z,2.73
2018-09-08T08:39:21.838Z,2.80
2018-09-08T08:41:49.662Z,3.03
2018-09-08T08:44:17.543Z,3.10
2018-09-08T08:46:45.405Z,2.63
2018-09-08T08:49:13.315Z,3.13
2018-09-08T08:51:46.903Z,2.00
2018-09-08T08:54:17.664Z,2.50
2018-09-08T08:56:45.539Z,2.57
2018-09-08T08:59:13.450Z,2.30
2018-09-08T09:01:41.464Z,2.37
2018-09-08T09:04:09.592Z,2.27
2018-09-08T09:06:37.613Z,2.40
2018-09-08T09:09:07.400Z,2.80
2018-09-08T09:11:35.725Z,2.20
2018-09-08T09:14:03.314Z,2.20
2018-09-08T09:16:31.306Z,2.27
2018-09-08T09:19:04.687Z,2.30
2018-09-08T09:21:38.322Z,2.20
2018-09-08T09:24:21.573Z,2.10
2018-09-08T09:26:49.010Z,2.20
2018-09-08T09:29:16.957Z,2.53
2018-09-08T09:31:44.902Z,2.07
2018-09-08T09:34:12.903Z,2.17
2018-09-08T09:36:41.630Z,2.20
2018-09-08T09:39:10.986Z,2.27
2018-09-08T09:41:40.487Z,2.20
2018-09-08T09:44:08.623Z,2.33
2018-09-08T09:46:36.498Z,2.07
2018-09-08T09:49:04.379Z,2.10
2018-09-08T09:51:32.240Z,1.80
2018-09-08T09:54:00.084Z,2.30
2018-09-08T09:56:27.981Z,2.40
2018-09-08T09:58:55.857Z,2.20
2018-09-08T10:01:29.338Z,2.50
2018-09-08T10:03:57.239Z,2.23
2018-09-08T10:06:25.297Z,2.00
2018-09-08T10:08:53.190Z,2.07
2018-09-08T10:11:21.105Z,2.03
2018-09-08T10:13:49.181Z,2.10
2018-09-08T10:16:17.029Z,2.40
2018-09-08T10:18:44.978Z,2.67
2018-09-08T10:21:12.780Z,2.37
2018-09-08T10:24:44.112Z,2.70
2018-09-08T10:27:12.026Z,2.30
2018-09-08T10:29:40.154Z,2.60
2018-09-08T10:32:08.220Z,2.13
2018-09-08T10:34:35.740Z,2.47
2018-09-08T10:37:03.500Z,2.70
2018-09-08T10:39:31.412Z,2.20
2018-09-08T10:41:59.360Z,2.13
2018-09-08T10:44:27.225Z,2.30
2018-09-08T10:46:55.154Z,2.37
2018-09-08T10:49:23.001Z,2.60
2018-09-08T10:51:55.272Z,2.40
2018-09-08T10:54:23.215Z,2.17
2018-09-08T10:56:51.106Z,2.17
2018-09-08T10:59:18.945Z,2.20
2018-09-08T11:01:46.896Z,2.10
2018-09-08T11:04:14.765Z,2.60
2018-09-08T11:06:42.636Z,1.90
2018-09-08T11:09:10.540Z,1.80
2018-09-08T11:11:38.413Z,2.43
2018-09-08T11:14:06.264Z,1.90
2018-09-08T11:16:34.177Z,1.90
2018-09-08T11:19:02.014Z,1.97
2018-09-08T11:21:29.886Z,2.07
2018-09-08T11:23:57.870Z,2.00
2018-09-08T11:26:25.709Z,2.30
2018-09-08T11:28:53.695Z,2.20
2018-09-08T11:31:21.599Z,2.00
2018-09-08T11:33:49.513Z,2.67
2018-09-08T11:36:17.451Z,2.20
2018-09-08T11:38:45.704Z,2.80
2018-09-08T11:41:13.702Z,2.60
2018-09-08T11:43:41.644Z,2.13
2018-09-08T11:46:09.634Z,2.30
2018-09-08T11:48:37.538Z,2.10
2018-09-08T11:51:05.406Z,2.30
2018-09-08T11:53:33.301Z,2.13
2018-09-08T11:56:01.159Z,2.20
2018-09-08T11:58:29.004Z,1.87
2018-09-08T12:00:56.893Z,2.00
2018-09-08T12:03:24.785Z,1.90
2018-09-08T12:08:19.774Z,2.15
2018-09-08T12:13:14.805Z,1.80
2018-09-08T12:15:42.688Z,2.07
2018-09-08T12:27:59.109Z,2.03
2018-09-08T12:30:27.005Z,2.10
2018-09-08T12:32:54.979Z,2.30
2018-09-08T12:35:22.970Z,2.60
2018-09-08T12:37:50.780Z,2.30
2018-09-08T12:40:18.650Z,2.00
2018-09-08T12:42:46.590Z,2.00
2018-09-08T12:59:57.485Z,1.80
2018-09-08T13:02:25.405Z,1.90
2018-09-08T13:04:53.274Z,1.70
2018-09-08T13:07:21.227Z,1.70
2018-09-08T13:09:49.144Z,1.60
2018-09-08T13:19:38.408Z,1.70
2018-09-08T13:22:06.430Z,1.80
2018-09-08T13:24:34.712Z,1.30
2018-09-08T13:27:02.613Z,1.53
2018-09-08T13:29:30.429Z,1.70
2018-09-08T13:31:58.358Z,1.50
2018-09-08T13:35:29.712Z,1.97
2018-09-08T13:37:57.715Z,1.37
2018-09-08T13:40:25.625Z,1.57
2018-09-08T13:42:53.539Z,1.57
2018-09-08T13:50:16.726Z,1.90
2018-09-08T13:52:44.644Z,1.53
2018-09-08T13:55:12.558Z,1.63
2018-09-08T13:57:40.490Z,1.40
2018-09-08T14:00:08.320Z,1.70
2018-09-08T14:02:36.221Z,1.77
2018-09-08T14:05:04.138Z,1.43
2018-09-08T14:07:32.040Z,1.60
2018-09-08T14:12:27.996Z,1.30
2018-09-08T14:14:55.911Z,1.80
2018-09-08T14:17:23.855Z,1.67
2018-09-08T14:19:51.767Z,1.60
2018-09-08T14:22:19.693Z,1.60
2018-09-08T14:24:48.160Z,1.30
2018-09-08T14:37:04.298Z,1.70
2018-09-08T14:39:32.129Z,1.70
2018-09-08T14:49:21.193Z,1.70
2018-09-08T14:51:49.068Z,1.77
2018-09-08T14:54:16.909Z,1.60
2018-09-08T14:56:44.878Z,1.70
2018-09-08T14:59:12.737Z,1.43
2018-09-08T15:01:40.613Z,1.50
2018-09-08T15:04:08.605Z,1.70
2018-09-08T15:06:36.467Z,1.33
2018-09-08T15:09:05.557Z,1.60
2018-09-08T15:11:33.456Z,1.47
2018-09-08T15:14:01.384Z,1.50
2018-09-08T15:16:29.252Z,1.60
2018-09-08T15:18:57.160Z,1.43
2018-09-08T15:21:25.089Z,1.60
2018-09-08T15:23:53.202Z,1.83
2018-09-08T15:26:21.186Z,1.60
2018-09-08T15:28:49.121Z,1.70
2018-09-08T15:31:16.921Z,1.70
2018-09-08T15:33:44.812Z,2.20
2018-09-08T15:36:12.694Z,3.40
2018-09-08T15:38:40.597Z,1.80
2018-09-08T15:41:08.444Z,2.10
2018-09-08T15:43:36.377Z,1.90
2018-09-08T15:46:04.379Z,1.80
2018-09-08T15:48:32.257Z,1.90
2018-09-08T15:51:00.185Z,1.70
2018-09-08T15:55:55.492Z,1.73
2018-09-08T15:58:23.586Z,1.57
2018-09-08T16:00:51.474Z,1.90
2018-09-08T16:03:19.340Z,2.00
2018-09-08T16:05:48.201Z,1.80
2018-09-08T16:08:17.049Z,1.80
2018-09-08T16:10:45.047Z,1.90
2018-09-08T16:13:12.949Z,3.17
2018-09-08T16:15:40.851Z,2.57
2018-09-08T16:18:08.864Z,2.20
2018-09-08T16:20:36.747Z,1.90
2018-09-08T16:23:06.676Z,1.87
2018-09-08T16:25:34.524Z,1.87
2018-09-08T16:28:02.433Z,2.10
2018-09-08T16:30:31.260Z,2.13
2018-09-08T16:32:59.160Z,2.20
2018-09-08T16:35:27.088Z,2.40
2018-09-08T16:37:54.981Z,1.90
2018-09-08T16:40:22.893Z,1.70
2018-09-08T16:42:50.861Z,2.20
2018-09-08T16:45:18.826Z,2.17
2018-09-08T16:47:46.695Z,2.90
2018-09-08T16:50:15.685Z,2.80
2018-09-08T16:52:43.534Z,2.70
2018-09-08T16:55:11.518Z,3.13
2018-09-08T16:57:40.425Z,4.00
2018-09-08T17:00:08.389Z,3.00
2018-09-08T17:02:36.327Z,3.20
2018-09-08T17:05:04.353Z,2.53
2018-09-08T17:17:20.573Z,5.00
2018-09-08T17:19:48.474Z,4.90
2018-09-08T17:22:16.363Z,4.40
2018-09-08T18:16:14.688Z,6.60
2018-09-08T18:18:42.572Z,6.57
2018-09-08T18:21:10.497Z,6.17
2018-09-08T18:23:38.987Z,6.33
2018-09-08T18:26:07.054Z,6.17
2018-09-08T18:28:34.994Z,6.90
2018-09-08T18:31:02.812Z,7.70
2018-09-08T18:33:30.693Z,7.23
2018-09-08T18:35:59.759Z,8.13
2018-09-08T18:38:27.695Z,8.00
2018-09-08T18:40:56.577Z,7.37
2018-09-08T18:43:24.566Z,12.33
2018-09-08T18:45:52.487Z,7.80
2018-09-08T18:48:20.371Z,9.63
2018-09-08T18:50:48.256Z,10.30
2018-09-08T18:53:16.257Z,8.80
2018-09-08T18:55:44.165Z,9.00
2018-09-08T18:58:12.242Z,8.20
2018-09-08T19:00:40.121Z,8.87
2018-09-08T19:03:07.976Z,8.40
2018-09-08T19:05:35.941Z,10.03
2018-09-08T19:08:03.809Z,9.90
2018-09-08T19:10:34.040Z,9.10
2018-09-08T19:13:01.937Z,8.97
2018-09-08T19:15:29.897Z,8.73
2018-09-08T19:17:57.846Z,7.80
2018-09-08T19:20:31.315Z,8.47
2018-09-08T19:22:59.189Z,9.03
2018-09-08T19:25:27.119Z,8.80
2018-09-08T19:27:55.112Z,8.90
2018-09-08T19:30:22.972Z,9.10
2018-09-08T19:32:50.906Z,9.83
2018-09-08T19:35:24.356Z,9.07
2018-09-08T19:37:52.241Z,8.70
2018-09-08T19:40:25.614Z,9.00
2018-09-08T19:42:53.678Z,10.00
2018-09-08T19:45:21.615Z,8.70
2018-09-08T19:47:55.083Z,9.10
2018-09-08T19:50:22.937Z,9.10
2018-09-08T19:52:56.392Z,9.23
2018-09-08T19:55:24.314Z,13.80
2018-09-08T19:57:57.535Z,14.43
2018-09-08T20:00:25.448Z,15.93
2018-09-08T20:02:53.442Z,14.50
2018-09-08T20:05:21.411Z,12.20
2018-09-08T20:07:49.291Z,11.00
2018-09-08T20:10:17.258Z,11.05
2018-09-08T20:12:45.209Z,12.50
2018-09-08T20:15:13.072Z,13.20
2018-09-08T20:17:41.037Z,12.60
2018-09-08T20:20:08.954Z,12.87
2018-09-08T20:22:37.903Z,12.30
2018-09-08T20:25:06.890Z,12.70
2018-09-08T20:27:34.800Z,13.00
2018-09-08T20:30:02.674Z,12.40
2018-09-08T20:32:30.576Z,11.87
2018-09-08T20:34:58.524Z,13.10
2018-09-08T20:37:26.479Z,13.70
2018-09-08T20:39:54.401Z,12.80
2018-09-08T20:42:22.339Z,13.47
2018-09-08T20:44:50.292Z,15.73
2018-09-08T20:47:18.662Z,14.10
2018-09-08T20:49:46.562Z,14.53
2018-09-08T20:52:14.489Z,14.63
2018-09-08T20:54:42.405Z,16.60
2018-09-08T20:57:10.429Z,13.03
2018-09-08T20:59:38.341Z,15.53
2018-09-08T21:02:06.496Z,15.10
2018-09-08T21:04:34.383Z,17.67
2018-09-08T21:07:02.327Z,15.55
2018-09-08T21:16:51.622Z,17.60
2018-09-08T21:19:19.585Z,18.70
2018-09-08T21:21:47.647Z,17.80
2018-09-08T21:24:15.670Z,17.40
2018-09-08T21:26:43.551Z,18.07
2018-09-08T21:29:11.461Z,17.70
2018-09-08T21:31:39.440Z,18.50
2018-09-08T21:34:08.318Z,19.47
2018-09-08T21:36:36.274Z,20.10
2018-09-08T21:39:05.057Z,19.20
2018-09-08T21:41:32.892Z,21.27
2018-09-08T21:44:00.817Z,21.23
2018-09-08T21:46:28.811Z,19.70
2018-09-08T21:48:56.668Z,19.70
2018-09-08T21:51:24.596Z,19.73
2018-09-08T21:53:52.562Z,19.70
2018-09-08T21:56:20.461Z,18.97
2018-09-08T21:58:48.445Z,18.63
2018-09-08T22:01:21.883Z,19.07
2018-09-08T22:03:49.728Z,18.10
2018-09-08T22:06:17.620Z,19.60
2018-09-08T22:08:45.517Z,18.67
2018-09-08T22:11:14.382Z,18.20
2018-09-08T22:13:42.302Z,19.00
2018-09-08T22:16:10.257Z,19.17
2018-09-08T22:18:38.140Z,19.43
2018-09-08T22:21:06.095Z,20.07
2018-09-08T22:23:34.091Z,18.90
2018-09-08T22:26:01.971Z,18.47
2018-09-08T22:28:29.891Z,18.00
2018-09-08T22:30:57.797Z,18.47
2018-09-08T22:33:25.771Z,18.07
2018-09-08T22:35:53.702Z,17.93
2018-09-08T22:38:21.654Z,17.90
2018-09-08T22:40:49.618Z,16.60
2018-09-08T22:43:17.589Z,16.63
2018-09-08T22:45:45.602Z,16.80
2018-09-08T22:48:13.460Z,16.80
2018-09-08T22:50:41.357Z,17.57
2018-09-08T22:53:10.145Z,15.90
2018-09-08T22:55:38.013Z,16.10
2018-09-08T22:58:06.173Z,14.83
2018-09-08T23:00:34.077Z,15.30
2018-09-08T23:03:01.950Z,15.43
2018-09-08T23:08:15.081Z,14.80
2018-09-08T23:10:42.899Z,15.07
2018-09-08T23:13:10.804Z,14.60
2018-09-08T23:15:38.644Z,14.57
2018-09-08T23:18:06.615Z,15.47
2018-09-08T23:20:34.563Z,13.90
2018-09-08T23:23:02.464Z,15.47
2018-09-08T23:25:30.370Z,15.90
2018-09-08T23:27:58.214Z,15.10
2018-09-08T23:30:26.159Z,15.30
2018-09-08T23:32:54.045Z,14.53
2018-09-08T23:35:21.944Z,14.03
2018-09-08T23:37:49.898Z,14.17
2018-09-08T23:40:17.781Z,14.97
2018-09-08T23:42:45.683Z,13.80
2018-09-08T23:45:13.765Z,13.90
2018-09-08T23:47:41.710Z,13.90
2018-09-08T23:50:09.647Z,13.40
2018-09-08T23:52:37.677Z,12.90
2018-09-08T23:55:05.599Z,11.80
2018-09-08T23:57:33.549Z,12.67
